KPZQ METAR Reports


Rogers City, Presque Isle County Airport, MI, United States (KPZQ) 45-24-25N 083-48-46W
Sep 24, 2017 - 04:15 AM EDT / 2017.09.24 0815 UTC
Wind: from the S (180 degrees) at 3 MPH (3 KT):0
Visibility: 10 mile(s):0
Sky conditions: clear
Temperature: 71.6 F (22.0 C)
Dew Point: 66.2 F (19.0 C)
Relative Humidity: 83%
Pressure (altimeter): 30.12 in. Hg (1019 hPa)
ob: KPZQ 240815Z AUTO 18003KT 10SM CLR 22/19 A3012 RMK AO2 T02200190
cycle: 8

 

Rogers City METAR Meteogram

Nearby METAR Reports

KPZQ - Rogers City, Michigan, USA
Distance from station: SSW 1mi, 2km
Updated: Sun, 24-Sep-2017 3:55am EDT
Clear
Clear
 Wind from S
Wind: S 5 mph , 7 km/h
Temperature: 70°F , 21°C
Dew Point: 66°F , 19°C
Humidity: 88%
Barometer: 30.11 inHg , 1019.6 hPa
Clouds: Clear
Visibility: 10 miles , 16 km
2017/09/24 07:55 KPZQ 240755Z AUTO 18004KT 10SM CLR 21/19 A3011 RMK AO2 T02090187
KAPN - Alpena, Michigan, USA
Distance from station: SSE 27mi, 43km
Updated: Sun, 24-Sep-2017 4:16am EDT
Mist, Clear
Mist, Clear
 Wind from calm
Wind: Calm
Temperature: 64°F , 18°C
Dew Point: 64°F , 18°C
Humidity: 100%
Barometer: 30.12 inHg , 1020 hPa
Summary: Mist
Clouds: Clear
Visibility: 1 mile , 2 km
2017/09/24 08:16 KAPN 240816Z AUTO 00000KT 1SM BR CLR 18/18 A3012 RMK AO2 T01780178
 
KSLH - Cheboygan, Michigan, USA
Distance from station: WNW 38mi, 61km
Updated: Sun, 24-Sep-2017 4:14am EDT
Clear
Clear
 Wind from calm
Wind: Calm
Temperature: 61°F , 16°C
Dew Point: 59°F , 15°C
Humidity: 94%
Barometer: 30.08 inHg , 1018.6 hPa
Clouds: Clear
Visibility: 7 miles , 11 km
2017/09/24 08:14 KSLH 240814Z AUTO 00000KT 7SM CLR 16/15 A3008 RMK AO2 T01610158
KDRM - Drummond Is, Michigan, USA
Distance from station: N 40mi, 65km
Updated: Sun, 24-Sep-2017 4:14am EDT
Mist
Mist
 Wind from calm
Wind: Calm
Temperature: 63°F , 17°C
Dew Point: 63°F , 17°C
Humidity: 100%
Barometer: 30.09 inHg , 1019 hPa
Summary: Mist
Visibility: 3 miles , 5 km
2017/09/24 08:14 KDRM 240814Z AUTO 00000KT 3SM BR 17/17 A3009 RMK AO2 SKY OBSCURED T01720169
 
KPLN - Pellston, Michigan, USA
Distance from station: WNW 49mi, 79km
Updated: Sun, 24-Sep-2017 3:54am EDT
Mist, Clear
Mist, Clear
 Wind from calm
Wind: Calm
Temperature: 59°F , 15°C
Dew Point: 59°F , 15°C
Humidity: 100%
Barometer: 30.10 inHg , 1019.3 hPa
Summary: Mist
Clouds: Clear
Visibility: 3 miles , 5 km
2017/09/24 07:54 KPLN 240754Z AUTO 00000KT 3SM BR CLR 15/15 A3010 RMK AO2 SLP190 T01500150
KMCD - Mackinac Island, Michigan, USA
Distance from station: NW 50mi, 80km
Updated: Sun, 24-Sep-2017 4:15am EDT
Clear
Clear
 Wind from SSE
Wind: SSE 7 mph , 11 km/h
Temperature: 70°F , 21°C
Dew Point: 66°F , 19°C
Humidity: 88%
Barometer: 30.10 inHg , 1019.3 hPa
Clouds: Clear
Visibility: 10 miles , 16 km
2017/09/24 08:15 KMCD 240815Z AUTO 16006KT 10SM CLR 21/19 A3010 RMK AO2 T02060189